createdAt,value
2022-10-29T00:01:36.374Z,46.97
2022-10-29T00:04:03.814Z,47.56
2022-10-29T00:06:30.924Z,47.94
2022-10-29T00:08:58.090Z,47.79
2022-10-29T00:11:25.584Z,48.00
2022-10-29T00:13:53.717Z,47.88
2022-10-29T00:16:22.090Z,49.17
2022-10-29T00:18:49.470Z,47.58
2022-10-29T00:21:17.689Z,47.18
2022-10-29T00:23:44.784Z,46.60
2022-10-29T00:26:12.307Z,47.36
2022-10-29T00:28:39.478Z,47.97
2022-10-29T00:31:07.772Z,47.65
2022-10-29T00:33:35.169Z,47.63
2022-10-29T00:36:03.394Z,48.54
2022-10-29T00:38:30.935Z,48.78
2022-10-29T00:40:58.482Z,50.11
2022-10-29T00:43:25.946Z,48.44
2022-10-29T00:45:53.791Z,48.32
2022-10-29T00:48:21.332Z,48.00
2022-10-29T00:50:48.854Z,47.77
2022-10-29T00:53:16.824Z,50.02
2022-10-29T00:55:44.278Z,49.36
2022-10-29T00:58:11.480Z,48.30
2022-10-29T01:00:38.927Z,48.40
2022-10-29T01:03:06.669Z,49.85
2022-10-29T01:05:33.869Z,50.09
2022-10-29T01:08:01.173Z,49.37
2022-10-29T01:10:39.170Z,52.06
2022-10-29T01:13:14.715Z,50.32
2022-10-29T01:16:17.820Z,49.45
2022-10-29T01:18:49.998Z,50.14
2022-10-29T01:21:17.342Z,51.10
2022-10-29T01:23:53.281Z,49.43
2022-10-29T01:26:39.514Z,49.78
2022-10-29T01:29:10.907Z,49.39
2022-10-29T01:31:39.788Z,49.30
2022-10-29T01:34:11.721Z,47.91
2022-10-29T01:36:44.315Z,49.42
2022-10-29T01:39:26.798Z,49.56
2022-10-29T01:41:57.259Z,49.35
2022-10-29T01:44:35.408Z,49.87
2022-10-29T01:47:03.262Z,48.58
2022-10-29T01:49:40.554Z,48.94
2022-10-29T01:52:08.778Z,51.40
2022-10-29T01:54:39.484Z,52.73
2022-10-29T01:57:23.363Z,51.69
2022-10-29T01:59:56.120Z,50.42
2022-10-29T02:02:47.338Z,54.14
2022-10-29T02:05:22.141Z,50.17
2022-10-29T02:08:08.404Z,50.14
2022-10-29T02:10:38.350Z,50.23
2022-10-29T02:13:05.542Z,50.32
2022-10-29T02:15:36.469Z,49.95
2022-10-29T02:18:04.899Z,51.16
2022-10-29T02:20:32.018Z,50.22
2022-10-29T02:22:59.147Z,50.78
2022-10-29T02:25:26.782Z,50.01
2022-10-29T02:27:54.153Z,49.57
2022-10-29T02:30:21.493Z,49.10
2022-10-29T02:32:48.908Z,49.98
2022-10-29T02:35:16.110Z,50.13
2022-10-29T02:37:43.238Z,49.44
2022-10-29T02:40:10.874Z,48.76
2022-10-29T02:42:38.054Z,47.94
2022-10-29T02:45:05.485Z,47.83
2022-10-29T02:47:33.005Z,48.02
2022-10-29T02:50:00.158Z,48.30
2022-10-29T02:52:27.253Z,47.48
2022-10-29T02:54:54.696Z,48.17
2022-10-29T02:57:21.802Z,51.80
2022-10-29T02:59:48.914Z,49.40
2022-10-29T03:02:16.383Z,48.87
2022-10-29T03:04:44.771Z,49.21
2022-10-29T03:07:11.910Z,49.93
2022-10-29T03:09:39.397Z,49.35
2022-10-29T03:12:06.703Z,49.35
2022-10-29T03:14:33.832Z,48.97
2022-10-29T03:17:01.296Z,48.72
2022-10-29T03:19:28.415Z,48.69
2022-10-29T03:21:55.559Z,48.17
2022-10-29T03:24:23.012Z,48.54
2022-10-29T03:26:50.164Z,51.82
2022-10-29T03:29:17.310Z,51.67
2022-10-29T03:31:44.742Z,49.20
2022-10-29T03:34:11.888Z,48.49
2022-10-29T03:36:39.066Z,48.19
2022-10-29T03:39:06.558Z,48.19
2022-10-29T03:41:33.676Z,48.81
2022-10-29T03:44:00.811Z,51.07
2022-10-29T03:46:28.220Z,51.90
2022-10-29T03:48:55.360Z,49.84
2022-10-29T03:51:22.503Z,52.17
2022-10-29T03:53:49.911Z,51.43
2022-10-29T03:56:17.044Z,50.27
2022-10-29T03:58:44.218Z,52.59
2022-10-29T04:01:11.720Z,52.60
2022-10-29T04:03:41.391Z,50.46
2022-10-29T04:06:09.636Z,51.70
2022-10-29T04:08:36.892Z,50.22
2022-10-29T04:11:04.332Z,49.86
2022-10-29T04:13:31.677Z,50.05
2022-10-29T04:15:58.831Z,50.35
2022-10-29T04:18:26.268Z,49.90
2022-10-29T04:29:15.945Z,48.55
2022-10-29T04:31:43.093Z,47.96
2022-10-29T04:34:10.279Z,47.89
2022-10-29T04:36:37.719Z,48.24
2022-10-29T04:39:04.869Z,48.49
2022-10-29T04:41:32.128Z,48.14
2022-10-29T04:43:59.571Z,48.04
2022-10-29T04:46:26.722Z,48.06
2022-10-29T04:48:53.981Z,48.49
2022-10-29T04:51:22.162Z,48.32
2022-10-29T04:53:49.441Z,50.08
2022-10-29T04:56:16.787Z,49.08
2022-10-29T04:58:44.223Z,48.69
2022-10-29T05:01:11.613Z,48.30
2022-10-29T05:03:38.926Z,48.28
2022-10-29T05:06:06.809Z,48.83
2022-10-29T05:08:34.336Z,48.10
2022-10-29T05:11:03.759Z,50.11
2022-10-29T05:13:31.329Z,49.34
2022-10-29T05:15:58.511Z,49.13
2022-10-29T05:18:25.732Z,48.36
2022-10-29T05:20:56.420Z,48.74
2022-10-29T05:23:23.616Z,48.51
2022-10-29T05:25:52.378Z,47.42
2022-10-29T05:28:20.851Z,47.61
2022-10-29T05:30:48.743Z,47.14
2022-10-29T05:33:16.792Z,47.38
2022-10-29T05:35:44.299Z,47.47
2022-10-29T05:38:12.054Z,46.57
2022-10-29T05:40:39.501Z,48.90
2022-10-29T05:43:06.930Z,47.19
2022-10-29T05:45:34.083Z,46.97
2022-10-29T05:48:02.198Z,46.99
2022-10-29T05:50:30.041Z,46.77
2022-10-29T05:53:01.004Z,48.05
2022-10-29T05:55:28.456Z,46.78
2022-10-29T05:57:59.563Z,49.06
2022-10-29T06:00:27.500Z,47.88
2022-10-29T06:02:55.686Z,49.06
2022-10-29T06:05:23.070Z,48.22
2022-10-29T06:07:54.074Z,47.62
2022-10-29T06:10:21.835Z,46.75
2022-10-29T06:12:49.334Z,49.77
2022-10-29T06:15:16.708Z,51.75
2022-10-29T06:17:44.295Z,50.45
2022-10-29T06:20:12.034Z,49.20
2022-10-29T06:22:39.161Z,49.03
2022-10-29T06:25:06.972Z,50.50
2022-10-29T06:27:34.087Z,49.85
2022-10-29T06:30:01.258Z,50.10
2022-10-29T06:32:28.653Z,48.79
2022-10-29T06:34:55.863Z,49.19
2022-10-29T06:37:23.009Z,48.90
2022-10-29T06:39:50.468Z,48.63
2022-10-29T06:42:17.593Z,49.16
2022-10-29T06:44:44.737Z,48.17
2022-10-29T06:47:12.147Z,50.17
2022-10-29T06:49:39.267Z,49.51
2022-10-29T06:52:06.398Z,48.07
2022-10-29T06:54:33.795Z,48.62
2022-10-29T06:57:00.907Z,48.79
2022-10-29T06:59:28.039Z,50.40
2022-10-29T07:01:55.525Z,54.47
2022-10-29T07:04:22.712Z,51.85
2022-10-29T07:06:49.847Z,53.74
2022-10-29T07:09:17.275Z,51.78
2022-10-29T07:11:44.452Z,51.90
2022-10-29T07:14:11.562Z,52.54
2022-10-29T07:16:38.978Z,52.05
2022-10-29T07:19:06.109Z,50.75
2022-10-29T07:21:34.945Z,50.73
2022-10-29T07:24:02.348Z,52.08
2022-10-29T07:26:29.452Z,50.56
2022-10-29T07:28:59.546Z,50.07
2022-10-29T07:31:26.980Z,51.72
2022-10-29T07:33:54.127Z,50.38
2022-10-29T07:36:21.243Z,52.49
2022-10-29T07:38:48.640Z,51.17
2022-10-29T07:41:15.968Z,50.11
2022-10-29T07:43:43.100Z,49.77
2022-10-29T07:46:10.485Z,50.21
2022-10-29T07:48:37.616Z,53.05
2022-10-29T07:51:04.806Z,53.12
2022-10-29T07:53:32.735Z,51.53
2022-10-29T07:55:59.867Z,50.94
2022-10-29T07:58:27.055Z,51.26
2022-10-29T08:00:54.583Z,52.70
2022-10-29T08:03:22.005Z,54.08
2022-10-29T08:05:56.198Z,55.20
2022-10-29T08:08:24.597Z,53.58
2022-10-29T08:10:51.735Z,52.50
2022-10-29T08:13:18.871Z,51.40
2022-10-29T08:15:46.619Z,51.64
2022-10-29T08:18:17.048Z,52.21
2022-10-29T08:20:44.456Z,53.62
2022-10-29T08:23:12.193Z,53.73
2022-10-29T08:25:42.647Z,55.53
2022-10-29T08:28:10.641Z,52.13
2022-10-29T08:30:38.093Z,55.41
2022-10-29T08:33:05.205Z,54.30
2022-10-29T08:35:32.732Z,52.40
2022-10-29T08:38:00.177Z,54.55
2022-10-29T08:40:42.919Z,53.64
2022-10-29T08:43:32.677Z,52.91
2022-10-29T08:45:59.817Z,51.61
2022-10-29T08:48:40.750Z,51.46
2022-10-29T08:51:10.453Z,50.58
2022-10-29T08:53:42.244Z,52.15
2022-10-29T08:56:11.818Z,51.48
2022-10-29T08:58:47.701Z,51.21
2022-10-29T09:01:15.024Z,50.46
2022-10-29T09:03:42.487Z,52.11
2022-10-29T09:06:10.617Z,54.41
2022-10-29T09:08:38.242Z,51.50
2022-10-29T09:11:17.634Z,56.35
2022-10-29T09:14:02.910Z,52.31
2022-10-29T09:16:44.213Z,55.48
2022-10-29T09:19:24.200Z,53.34
2022-10-29T09:22:14.109Z,53.79
2022-10-29T09:25:04.549Z,54.03
2022-10-29T09:27:50.803Z,53.51
2022-10-29T09:30:18.951Z,53.33
2022-10-29T09:33:07.284Z,52.25
2022-10-29T09:35:44.267Z,52.96
2022-10-29T09:38:14.207Z,58.07
2022-10-29T09:40:42.177Z,53.12
2022-10-29T09:43:35.657Z,57.82
2022-10-29T09:46:08.942Z,54.73
2022-10-29T09:48:39.038Z,54.64
2022-10-29T09:51:06.499Z,52.83
2022-10-29T09:53:33.643Z,52.71
2022-10-29T09:56:00.840Z,53.35
2022-10-29T09:58:28.373Z,55.24
2022-10-29T10:00:57.061Z,55.71
2022-10-29T10:03:24.387Z,55.67
2022-10-29T10:06:08.254Z,53.68
2022-10-29T10:08:36.051Z,53.74
2022-10-29T10:11:04.925Z,53.77
2022-10-29T10:13:33.022Z,52.19
2022-10-29T10:16:01.201Z,52.19
2022-10-29T10:18:31.456Z,51.56
2022-10-29T10:21:14.957Z,51.09
2022-10-29T10:23:46.514Z,50.71
2022-10-29T10:26:25.882Z,47.80
2022-10-29T10:29:07.203Z,49.45
2022-10-29T10:31:34.399Z,48.40
2022-10-29T10:34:07.870Z,47.74
2022-10-29T10:36:36.203Z,48.81
2022-10-29T10:39:03.607Z,48.13
2022-10-29T10:41:31.168Z,53.65
2022-10-29T10:44:00.472Z,51.43
2022-10-29T10:46:30.610Z,52.59
2022-10-29T10:49:02.205Z,52.43
2022-10-29T10:51:30.463Z,52.30
2022-10-29T10:53:58.493Z,52.03
2022-10-29T10:56:25.698Z,50.95
2022-10-29T10:58:53.130Z,51.84
2022-10-29T11:01:22.815Z,53.02
2022-10-29T11:03:51.797Z,52.55
2022-10-29T11:06:21.079Z,52.59
2022-10-29T11:08:51.284Z,51.00
2022-10-29T11:11:23.332Z,51.23
2022-10-29T11:13:50.719Z,49.67
2022-10-29T11:16:21.731Z,50.55
2022-10-29T11:18:51.789Z,49.61
2022-10-29T11:21:26.441Z,49.18
2022-10-29T11:24:05.170Z,48.74
2022-10-29T11:26:35.915Z,50.36
2022-10-29T11:29:06.074Z,51.55
2022-10-29T11:31:41.046Z,52.04
2022-10-29T11:34:14.521Z,50.50
2022-10-29T11:36:43.309Z,51.91
2022-10-29T11:39:13.437Z,51.93
2022-10-29T11:41:40.692Z,51.04
2022-10-29T11:44:11.749Z,48.79
2022-10-29T11:46:39.045Z,49.95
2022-10-29T11:49:24.934Z,51.81
2022-10-29T11:51:59.481Z,50.69
2022-10-29T11:54:48.498Z,50.41
2022-10-29T11:57:16.791Z,50.04
2022-10-29T11:59:43.875Z,50.09
2022-10-29T12:02:24.372Z,49.13
2022-10-29T12:04:58.903Z,49.50
2022-10-29T12:07:41.289Z,48.25
2022-10-29T12:10:12.640Z,48.21
2022-10-29T12:12:46.503Z,48.84
2022-10-29T12:15:20.205Z,48.62
2022-10-29T12:17:56.618Z,50.97
2022-10-29T12:20:33.126Z,50.50
2022-10-29T12:23:11.987Z,49.52
2022-10-29T12:25:50.971Z,49.33
2022-10-29T12:28:21.138Z,49.99
2022-10-29T12:30:54.781Z,48.67
2022-10-29T12:33:26.582Z,47.55
2022-10-29T12:36:06.404Z,48.69
2022-10-29T12:38:40.964Z,49.09
2022-10-29T12:41:10.171Z,51.32
2022-10-29T12:43:38.387Z,49.34
2022-10-29T12:46:23.743Z,48.92
2022-10-29T12:49:06.270Z,49.37
2022-10-29T12:51:50.575Z,50.27
2022-10-29T12:54:27.168Z,50.67
2022-10-29T12:56:54.356Z,51.01
2022-10-29T12:59:24.731Z,51.86
2022-10-29T13:04:42.276Z,50.42
2022-10-29T13:07:18.565Z,51.38
2022-10-29T13:09:48.379Z,50.67
2022-10-29T13:12:35.706Z,50.91
2022-10-29T13:15:04.117Z,50.93
2022-10-29T13:17:32.292Z,50.19
2022-10-29T13:20:00.255Z,48.54
2022-10-29T13:22:35.461Z,49.58
2022-10-29T13:25:21.620Z,49.14
2022-10-29T13:27:49.008Z,48.64
2022-10-29T13:30:16.102Z,48.88
2022-10-29T13:32:43.219Z,48.56
2022-10-29T13:35:16.485Z,48.02
2022-10-29T13:37:46.721Z,47.85
2022-10-29T13:40:23.456Z,47.53
2022-10-29T13:42:56.567Z,49.23
2022-10-29T13:45:24.187Z,48.60
2022-10-29T13:47:51.306Z,48.63
2022-10-29T13:50:18.762Z,49.66
2022-10-29T13:52:46.569Z,48.65
2022-10-29T13:55:16.818Z,49.77
2022-10-29T13:57:47.103Z,49.95
2022-10-29T14:00:19.279Z,50.28
2022-10-29T14:03:06.428Z,51.17
2022-10-29T14:05:35.077Z,50.02
2022-10-29T14:08:11.510Z,51.66
2022-10-29T14:10:41.476Z,49.66
2022-10-29T14:13:08.910Z,49.14
2022-10-29T14:15:39.131Z,48.62
2022-10-29T14:18:21.843Z,47.68
2022-10-29T14:20:55.914Z,47.98
2022-10-29T14:23:23.123Z,48.28
2022-10-29T14:25:51.365Z,48.27
2022-10-29T14:28:19.911Z,47.08
2022-10-29T14:30:47.584Z,46.67
2022-10-29T14:33:24.190Z,47.02
2022-10-29T14:35:51.617Z,48.35
2022-10-29T14:38:19.248Z,46.87
2022-10-29T14:40:46.408Z,47.19
2022-10-29T14:43:17.976Z,47.16
2022-10-29T14:45:45.406Z,47.54
2022-10-29T14:48:16.100Z,47.12
2022-10-29T14:50:46.958Z,46.31
2022-10-29T14:53:26.514Z,46.50
2022-10-29T14:55:53.651Z,46.78
2022-10-29T14:58:22.415Z,46.70
2022-10-29T15:00:52.146Z,47.34
2022-10-29T15:03:20.592Z,46.61
2022-10-29T15:05:48.280Z,47.09
2022-10-29T15:08:16.059Z,46.84
2022-10-29T15:10:50.455Z,45.05
2022-10-29T15:13:27.013Z,45.82
2022-10-29T15:16:06.746Z,46.12
2022-10-29T15:18:34.192Z,46.74
2022-10-29T15:21:01.448Z,47.40
2022-10-29T15:23:35.601Z,47.23
2022-10-29T15:26:23.423Z,46.60
2022-10-29T15:28:51.521Z,47.08
2022-10-29T15:31:24.358Z,46.87
2022-10-29T15:33:52.249Z,47.17
2022-10-29T15:36:19.659Z,48.47
2022-10-29T15:38:51.994Z,48.31
2022-10-29T15:41:20.085Z,48.82
2022-10-29T15:43:52.001Z,47.90
2022-10-29T15:46:23.257Z,47.44
2022-10-29T15:48:50.400Z,46.96
2022-10-29T15:51:17.658Z,47.19
2022-10-29T15:53:45.089Z,47.81
2022-10-29T15:56:12.668Z,47.06
2022-10-29T15:58:39.861Z,46.39
2022-10-29T16:01:07.728Z,46.12
2022-10-29T16:03:39.206Z,46.28
2022-10-29T16:06:06.942Z,47.07
2022-10-29T16:08:37.288Z,46.72
2022-10-29T16:11:07.856Z,46.20
2022-10-29T16:13:35.300Z,46.38
2022-10-29T16:16:02.429Z,46.64
2022-10-29T16:18:29.564Z,47.21
2022-10-29T16:20:57.855Z,47.52
2022-10-29T16:23:25.006Z,46.71
2022-10-29T16:25:52.111Z,46.84
2022-10-29T16:28:19.531Z,46.53
2022-10-29T16:30:47.814Z,46.50
2022-10-29T16:33:14.927Z,46.01
2022-10-29T16:35:42.327Z,45.65
2022-10-29T16:38:10.222Z,45.79
2022-10-29T16:40:37.326Z,46.14
2022-10-29T16:43:04.974Z,45.89
2022-10-29T16:45:32.435Z,46.59
2022-10-29T16:47:59.935Z,46.20
2022-10-29T16:50:32.672Z,46.20
2022-10-29T16:53:01.041Z,45.91
2022-10-29T16:55:28.634Z,46.24
2022-10-29T16:57:56.316Z,46.54
2022-10-29T17:00:25.874Z,46.76
2022-10-29T17:02:53.450Z,45.77
2022-10-29T17:05:20.949Z,45.86
2022-10-29T17:07:48.140Z,46.44
2022-10-29T17:10:15.516Z,45.86
2022-10-29T17:12:42.667Z,45.67
2022-10-29T17:15:09.994Z,46.56
2022-10-29T17:17:39.903Z,45.61
2022-10-29T17:20:09.822Z,45.52
2022-10-29T17:22:37.098Z,45.65
2022-10-29T17:25:04.953Z,45.79
2022-10-29T17:27:32.364Z,46.05
2022-10-29T17:29:59.632Z,45.74
2022-10-29T17:32:32.508Z,45.84
2022-10-29T17:35:00.255Z,45.29
2022-10-29T17:37:28.081Z,46.04
2022-10-29T17:39:55.270Z,46.20
2022-10-29T17:42:22.535Z,45.94
2022-10-29T17:44:50.787Z,45.74
2022-10-29T17:47:18.452Z,46.41
2022-10-29T17:49:45.700Z,46.65
2022-10-29T17:52:13.241Z,46.92
2022-10-29T17:54:40.928Z,47.21
2022-10-29T17:57:08.297Z,46.63
2022-10-29T17:59:35.866Z,46.25
2022-10-29T18:02:03.665Z,45.81
2022-10-29T18:04:31.757Z,45.66
2022-10-29T18:06:58.948Z,46.35
2022-10-29T18:09:26.391Z,45.36
2022-10-29T18:11:53.860Z,45.69
2022-10-29T18:14:21.338Z,45.59
2022-10-29T18:16:48.532Z,46.16
2022-10-29T18:19:15.986Z,45.69
2022-10-29T18:21:43.465Z,46.00
2022-10-29T18:24:10.761Z,46.53
2022-10-29T18:26:38.177Z,45.93
2022-10-29T18:29:07.626Z,45.62
2022-10-29T18:31:38.080Z,45.69
2022-10-29T18:34:07.146Z,45.46
2022-10-29T18:36:35.643Z,45.06
2022-10-29T18:39:04.286Z,45.88
2022-10-29T18:41:31.821Z,45.32
2022-10-29T18:43:59.249Z,44.92
2022-10-29T18:46:26.537Z,44.96
2022-10-29T18:48:54.326Z,45.87
2022-10-29T18:51:25.643Z,45.69
2022-10-29T18:53:53.367Z,45.14
2022-10-29T18:56:21.840Z,45.58
2022-10-29T18:58:49.117Z,45.63
2022-10-29T19:01:17.488Z,45.36
2022-10-29T19:03:48.689Z,45.34
2022-10-29T19:06:15.963Z,44.91
2022-10-29T19:08:43.369Z,44.90
2022-10-29T19:11:14.714Z,44.84
2022-10-29T19:13:42.247Z,45.12
2022-10-29T19:16:10.507Z,45.54
2022-10-29T19:18:38.341Z,45.46
2022-10-29T19:21:06.696Z,45.35
2022-10-29T19:23:34.248Z,44.99
2022-10-29T19:26:09.173Z,45.06
2022-10-29T19:28:36.749Z,45.35
2022-10-29T19:31:04.973Z,45.04
2022-10-29T19:33:32.252Z,45.14
2022-10-29T19:35:59.397Z,45.23
2022-10-29T19:38:26.846Z,45.29
2022-10-29T19:40:56.061Z,44.89
2022-10-29T19:43:23.703Z,45.44
2022-10-29T19:45:51.429Z,46.98
2022-10-29T19:48:19.084Z,46.31
2022-10-29T19:50:46.492Z,46.58
2022-10-29T19:53:14.050Z,46.38
2022-10-29T19:55:41.756Z,46.69
2022-10-29T19:58:09.889Z,46.21
2022-10-29T20:00:37.469Z,46.32
2022-10-29T20:03:04.883Z,47.65
2022-10-29T20:08:04.929Z,46.23
2022-10-29T20:10:32.152Z,46.58
2022-10-29T20:12:59.919Z,47.65
2022-10-29T20:15:27.932Z,46.69
2022-10-29T20:17:57.241Z,47.00
2022-10-29T20:20:25.439Z,46.15
2022-10-29T20:22:54.397Z,45.47
2022-10-29T20:25:23.946Z,45.92
2022-10-29T20:27:51.590Z,46.07
2022-10-29T20:30:20.791Z,45.97
2022-10-29T20:32:48.146Z,46.46
2022-10-29T20:35:15.630Z,45.99
2022-10-29T20:37:43.458Z,46.00
2022-10-29T20:40:11.074Z,45.83
2022-10-29T20:42:41.533Z,46.44
2022-10-29T20:45:09.392Z,46.24
2022-10-29T20:47:36.609Z,45.96
2022-10-29T20:50:03.873Z,45.69
2022-10-29T20:52:31.317Z,46.03
2022-10-29T20:54:58.453Z,45.43
2022-10-29T20:57:25.594Z,45.60
2022-10-29T20:59:53.216Z,46.12
2022-10-29T21:02:20.455Z,45.75
2022-10-29T21:04:47.688Z,45.59
2022-10-29T21:07:15.086Z,45.68
2022-10-29T21:09:42.204Z,46.10
2022-10-29T21:12:09.348Z,46.90
2022-10-29T21:14:36.795Z,47.60
2022-10-29T21:17:03.955Z,46.52
2022-10-29T21:19:32.217Z,45.49
2022-10-29T21:21:59.835Z,46.13
2022-10-29T21:24:26.977Z,45.97
2022-10-29T21:26:54.089Z,46.78
2022-10-29T21:29:21.495Z,46.94
2022-10-29T21:31:49.685Z,46.70
2022-10-29T21:34:16.819Z,47.72
2022-10-29T21:36:44.209Z,48.38
2022-10-29T21:39:11.333Z,47.51
2022-10-29T21:41:38.474Z,47.01
2022-10-29T21:44:05.890Z,46.59
2022-10-29T21:46:33.094Z,46.17
2022-10-29T21:49:00.222Z,47.27
2022-10-29T21:51:27.626Z,46.53
2022-10-29T21:53:54.760Z,47.59
2022-10-29T21:56:21.954Z,47.73
2022-10-29T21:58:52.301Z,47.17
2022-10-29T22:01:19.482Z,47.11
2022-10-29T22:03:47.508Z,47.50
2022-10-29T22:06:15.621Z,48.03
2022-10-29T22:08:42.764Z,46.75
2022-10-29T22:11:10.589Z,46.88
2022-10-29T22:13:37.723Z,47.66
2022-10-29T22:16:05.099Z,46.64
2022-10-29T22:18:32.718Z,49.27
2022-10-29T22:21:11.074Z,47.78
2022-10-29T22:23:42.093Z,47.33
2022-10-29T22:26:09.347Z,46.89
2022-10-29T22:28:39.814Z,46.90
2022-10-29T22:31:07.231Z,46.52
2022-10-29T22:33:34.384Z,47.10
2022-10-29T22:36:05.482Z,47.92
2022-10-29T22:38:32.896Z,48.21
2022-10-29T22:41:03.538Z,48.24
2022-10-29T22:43:30.686Z,48.38
2022-10-29T22:45:58.090Z,50.50
2022-10-29T22:48:25.231Z,49.57
2022-10-29T22:51:02.480Z,50.91
2022-10-29T22:53:30.084Z,51.30
2022-10-29T22:55:57.212Z,49.09
2022-10-29T22:58:24.352Z,50.72
2022-10-29T23:01:01.551Z,50.34
2022-10-29T23:03:28.745Z,51.11
2022-10-29T23:05:57.388Z,50.15
2022-10-29T23:08:24.712Z,50.52
2022-10-29T23:10:51.864Z,49.69
2022-10-29T23:13:19.259Z,49.54
2022-10-29T23:15:47.542Z,48.84
2022-10-29T23:18:14.678Z,49.31
2022-10-29T23:20:42.213Z,48.63
2022-10-29T23:23:09.401Z,48.59
2022-10-29T23:25:36.557Z,47.61
2022-10-29T23:28:03.973Z,49.13
2022-10-29T23:30:31.095Z,47.98
2022-10-29T23:32:58.640Z,48.10
2022-10-29T23:35:26.281Z,48.02
2022-10-29T23:37:53.398Z,47.69
2022-10-29T23:40:20.534Z,46.86
2022-10-29T23:42:47.962Z,46.97
2022-10-29T23:45:16.965Z,47.71
2022-10-29T23:47:44.130Z,47.59
2022-10-29T23:50:11.519Z,46.73
2022-10-29T23:52:38.655Z,47.18
2022-10-29T23:55:06.024Z,46.66
2022-10-29T23:57:33.682Z,46.94
